JACKSON NJ US current weather conditions

sailwx.info

Wind from 311 at 4 knots gusting 12

Air temperature 3.9° C
Dewpoint -4.8° C

Last reported at 2020-Jan-28 22:10 UTC.
Time now 2020-Jan-28 23:45 UTC

Location: N 40°06' W 074°19'.
View on Google Maps.

See reports from other nearby stations

  
Tides and Currents Weather Stations Pressure Air Temp Water Temp Dewpoint Dewpoint Depression Visibility Wind Speed Wind Dir Waves Ship Positions
date/time (UTC)wind fromknots sea level pressurealtimeterstation pressurevisibilityair tempwater tempwave heightnotes
2020-Jan-28 22:10 311 4 gusting 12 3.9
2020-Jan-28 21:10 344 3 gusting 13 4.4
2020-Jan-28 20:10 330 5 gusting 14 4.4
2020-Jan-28 19:10 321 3 gusting 14 5.6
2020-Jan-28 18:10 333 5 gusting 14 7.2
2020-Jan-28 17:10 336 4 gusting 13 7.2
2020-Jan-28 16:10 327 5 gusting 13 7.2
2020-Jan-28 15:10 338 5 gusting 13 6.7
2020-Jan-28 14:10 326 3 gusting 10 5.0
2020-Jan-28 13:10 289 2 gusting 6 2.2
2020-Jan-28 12:10 295 2 gusting 7 1.7
2020-Jan-28 11:10 322 3 gusting 11 2.8
2020-Jan-28 10:10 309 2 gusting 7 2.2
2020-Jan-28 09:10 331 1 gusting 10 2.2
2020-Jan-28 08:10 327 3 gusting 7 3.3
2020-Jan-28 07:10 323 3 gusting 7 3.3
2020-Jan-28 06:10 310 2 gusting 6 3.9
2020-Jan-28 05:10 313 2 gusting 6 4.4
2020-Jan-28 04:10 294 1 gusting 4 3.9
2020-Jan-28 03:10 289 0 gusting 3 3.3
2020-Jan-28 02:10 275 0 gusting 3 3.3
2020-Jan-28 01:10 239 0 gusting 6 3.3
2020-Jan-28 00:10 305 2 gusting 6 5.6
2020-Jan-27 23:10 302 3 gusting 6 6.1
2020-Jan-27 22:10 289 2 gusting 9 6.1
2020-Jan-27 21:10 285 4 gusting 12 6.7
2020-Jan-27 20:10 287 4 gusting 12 7.8
2020-Jan-27 19:10 295 4 gusting 13 6.7
2020-Jan-27 18:10 291 4 gusting 15 6.1
2020-Jan-27 17:10 287 6 gusting 15 6.1
2020-Jan-27 16:10 271 6 gusting 12 6.1
2020-Jan-27 15:10 266 5 gusting 10 5.6
2020-Jan-27 14:10 249 4 gusting 7 4.4
2020-Jan-27 13:10 250 3 gusting 6 2.2
2020-Jan-27 12:10 236 1 gusting 6 1.1
2020-Jan-27 11:10 246 3 gusting 7 1.7
2020-Jan-27 10:10 259 3 gusting 6 1.1
2020-Jan-27 09:10 252 2 gusting 5 -0.0
2020-Jan-27 08:10 196 1 gusting 3 -1.7
2020-Jan-27 07:10 -2.2
2020-Jan-27 06:10 -2.2
2020-Jan-27 05:10 -1.7
2020-Jan-27 04:10 212 0 gusting 1 -1.7
2020-Jan-27 03:10 0.6
2020-Jan-27 02:10 278 2 gusting 6 3.3
2020-Jan-27 01:10 299 1 gusting 6 4.4
2020-Jan-27 00:10 275 1 gusting 5 5.0
2020-Jan-26 23:10 259 1 gusting 5 5.6